Terminal Aerodrome Forecast
Issued by NWS

Home | Current Version | Previous Version | Text Only | Print | Product List | Glossary On
Versions: 1 2 3 4 5 6 7 8 9 10 11 12
000
FTUS43 KFGF 241737
TAFDVL
TAF
KDVL 241737Z 2418/2518 19012KT P6SM BKN200
     FM242100 18012KT P6SM BKN025
     FM242200 18011KT P6SM BKN015
     FM250100 19008KT P6SM BKN025
     FM250500 23006KT P6SM SCT050
     FM251000 28009KT P6SM BKN020
     FM251400 28012KT P6SM BKN015
     FM251700 27014KT P6SM BKN020=

USA.gov is the U.S. government's official web portal to all federal, state and local government web resources and services.